createdAt,value
2022-12-03T00:00:12.794Z,34.05
2022-12-03T00:02:39.776Z,34.27
2022-12-03T00:05:06.462Z,34.01
2022-12-03T00:07:32.814Z,34.04
2022-12-03T00:09:59.143Z,33.88
2022-12-03T00:12:25.399Z,34.09
2022-12-03T00:14:53.126Z,34.02
2022-12-03T00:17:19.462Z,34.00
2022-12-03T00:19:45.744Z,34.08
2022-12-03T00:22:12.922Z,34.35
2022-12-03T00:24:39.503Z,34.11
2022-12-03T00:27:05.825Z,34.09
2022-12-03T00:29:32.154Z,34.13
2022-12-03T00:31:59.888Z,33.83
2022-12-03T00:34:26.202Z,33.96
2022-12-03T00:36:52.590Z,33.99
2022-12-03T00:39:18.907Z,34.02
2022-12-03T00:41:45.222Z,33.77
2022-12-03T00:44:11.568Z,33.97
2022-12-03T00:46:38.103Z,33.85
2022-12-03T00:49:05.724Z,34.02
2022-12-03T00:51:32.010Z,34.10
2022-12-03T00:53:58.328Z,34.20
2022-12-03T00:56:24.616Z,34.00
2022-12-03T00:58:50.895Z,34.01
2022-12-03T01:01:17.267Z,33.95
2022-12-03T01:03:43.714Z,33.99
2022-12-03T01:06:11.257Z,33.91
2022-12-03T01:08:37.644Z,33.82
2022-12-03T01:11:04.137Z,33.85
2022-12-03T01:13:30.437Z,34.13
2022-12-03T01:15:56.836Z,34.01
2022-12-03T01:18:23.165Z,33.96
2022-12-03T01:20:49.470Z,33.99
2022-12-03T01:23:17.004Z,33.89
2022-12-03T01:25:43.298Z,33.89
2022-12-03T01:28:09.555Z,33.90
2022-12-03T01:30:35.901Z,33.83
2022-12-03T01:33:02.239Z,33.84
2022-12-03T01:35:28.656Z,33.82
2022-12-03T01:37:54.978Z,33.83
2022-12-03T01:40:22.763Z,34.06
2022-12-03T01:42:49.079Z,34.03
2022-12-03T01:45:20.779Z,34.06
2022-12-03T01:47:47.143Z,33.83
2022-12-03T01:50:17.340Z,33.82
2022-12-03T01:52:44.052Z,33.95
2022-12-03T01:55:13.520Z,33.96
2022-12-03T01:57:42.240Z,33.99
2022-12-03T02:00:13.120Z,33.91
2022-12-03T02:02:39.441Z,33.80
2022-12-03T02:05:06.884Z,33.90
2022-12-03T02:07:33.673Z,34.17
2022-12-03T02:10:00.817Z,34.08
2022-12-03T02:12:29.109Z,33.82
2022-12-03T02:14:56.978Z,33.95
2022-12-03T02:17:23.406Z,33.88
2022-12-03T02:19:49.830Z,33.90
2022-12-03T02:22:23.133Z,33.82
2022-12-03T02:24:53.603Z,33.87
2022-12-03T02:27:21.475Z,33.94
2022-12-03T02:29:58.391Z,33.83
2022-12-03T02:32:24.690Z,34.10
2022-12-03T02:34:51.326Z,34.03
2022-12-03T02:37:20.344Z,33.97
2022-12-03T02:39:48.321Z,33.92
2022-12-03T02:42:14.611Z,33.95
2022-12-03T02:44:42.327Z,33.83
2022-12-03T02:47:09.155Z,34.02
2022-12-03T02:49:35.504Z,33.83
2022-12-03T02:52:01.899Z,33.96
2022-12-03T02:54:28.297Z,33.91
2022-12-03T02:56:54.588Z,33.90
2022-12-03T02:59:21.046Z,34.15
2022-12-03T03:01:48.785Z,33.92
2022-12-03T03:04:15.275Z,33.91
2022-12-03T03:06:41.742Z,33.97
2022-12-03T03:09:08.133Z,33.90
2022-12-03T03:11:34.566Z,33.94
2022-12-03T03:14:01.319Z,33.90
2022-12-03T03:16:27.976Z,33.96
2022-12-03T03:18:55.630Z,33.96
2022-12-03T03:21:21.998Z,33.90
2022-12-03T03:23:48.330Z,34.07
2022-12-03T03:26:14.808Z,34.00
2022-12-03T03:28:42.702Z,33.98
2022-12-03T03:31:11.113Z,33.99
2022-12-03T03:33:39.276Z,34.00
2022-12-03T03:36:07.431Z,33.88
2022-12-03T03:38:33.922Z,33.81
2022-12-03T03:41:01.916Z,33.87
2022-12-03T03:43:29.597Z,33.68
2022-12-03T03:45:56.109Z,33.65
2022-12-03T03:48:22.571Z,33.94
2022-12-03T03:50:49.615Z,34.01
2022-12-03T03:53:17.701Z,33.88
2022-12-03T03:55:44.336Z,33.87
2022-12-03T03:58:10.889Z,33.84
2022-12-03T04:00:37.308Z,33.91
2022-12-03T04:03:03.661Z,33.64
2022-12-03T04:05:30.171Z,33.67
2022-12-03T04:07:56.649Z,33.72
2022-12-03T04:10:24.353Z,33.64
2022-12-03T04:12:50.644Z,33.64
2022-12-03T04:15:17.056Z,33.69
2022-12-03T04:17:43.365Z,33.72
2022-12-03T04:20:10.130Z,33.67
2022-12-03T04:22:36.403Z,33.70
2022-12-03T04:25:02.769Z,33.78
2022-12-03T04:27:30.381Z,33.73
2022-12-03T04:29:56.836Z,33.69
2022-12-03T04:32:23.119Z,33.53
2022-12-03T04:34:49.418Z,33.65
2022-12-03T04:37:15.691Z,33.64
2022-12-03T04:39:42.051Z,33.70
2022-12-03T04:42:08.418Z,33.70
2022-12-03T04:44:36.012Z,33.59
2022-12-03T04:47:03.823Z,33.72
2022-12-03T04:49:30.571Z,33.70
2022-12-03T04:51:56.880Z,33.78
2022-12-03T04:54:23.212Z,33.87
2022-12-03T04:56:49.551Z,33.64
2022-12-03T04:59:16.723Z,33.80
2022-12-03T05:01:44.998Z,33.79
2022-12-03T05:04:11.430Z,33.81
2022-12-03T05:06:37.845Z,33.67
2022-12-03T05:09:04.136Z,33.68
2022-12-03T05:11:30.392Z,33.66
2022-12-03T05:13:56.681Z,33.65
2022-12-03T05:16:23.011Z,33.63
2022-12-03T05:18:50.755Z,33.65
2022-12-03T05:21:17.059Z,33.83
2022-12-03T05:23:43.621Z,33.78
2022-12-03T05:26:10.260Z,33.69
2022-12-03T05:28:36.610Z,33.70
2022-12-03T05:31:02.963Z,33.83
2022-12-03T05:33:29.387Z,33.76
2022-12-03T05:35:57.003Z,33.67
2022-12-03T05:38:23.363Z,33.80
2022-12-03T05:40:49.688Z,33.49
2022-12-03T05:43:15.975Z,33.74
2022-12-03T05:45:42.869Z,33.50
2022-12-03T05:48:10.820Z,33.89
2022-12-03T05:50:38.245Z,33.81
2022-12-03T05:53:06.105Z,33.59
2022-12-03T05:55:32.751Z,33.73
2022-12-03T05:57:59.085Z,33.48
2022-12-03T06:00:26.757Z,33.72
2022-12-03T06:02:53.536Z,33.69
2022-12-03T06:05:20.417Z,33.58
2022-12-03T06:07:47.258Z,33.58
2022-12-03T06:10:15.837Z,33.61
2022-12-03T06:12:42.176Z,33.54
2022-12-03T06:15:09.332Z,33.51
2022-12-03T06:17:35.604Z,33.69
2022-12-03T06:20:02.297Z,33.54
2022-12-03T06:22:28.756Z,33.60
2022-12-03T06:24:55.308Z,33.48
2022-12-03T06:27:23.050Z,33.46
2022-12-03T06:29:49.361Z,33.55
2022-12-03T06:32:15.634Z,33.44
2022-12-03T06:34:41.935Z,33.51
2022-12-03T06:37:08.336Z,33.66
2022-12-03T06:39:34.731Z,33.54
2022-12-03T06:42:01.019Z,33.40
2022-12-03T06:44:28.665Z,33.45
2022-12-03T06:46:55.088Z,33.73
2022-12-03T06:49:21.453Z,33.45
2022-12-03T06:51:47.819Z,33.55
2022-12-03T06:54:14.246Z,33.54
2022-12-03T06:56:45.095Z,33.36
2022-12-03T06:59:11.914Z,33.36
2022-12-03T07:01:39.962Z,33.34
2022-12-03T07:04:06.265Z,33.44
2022-12-03T07:06:32.593Z,33.35
2022-12-03T07:08:59.029Z,33.41
2022-12-03T07:11:25.404Z,33.42
2022-12-03T07:13:51.696Z,33.40
2022-12-03T07:16:18.066Z,33.50
2022-12-03T07:18:45.687Z,33.56
2022-12-03T07:21:11.983Z,33.24
2022-12-03T07:23:38.402Z,33.45
2022-12-03T07:26:04.885Z,33.43
2022-12-03T07:28:31.165Z,33.32
2022-12-03T07:30:57.544Z,33.46
2022-12-03T07:33:23.864Z,33.27
2022-12-03T07:35:51.486Z,33.23
2022-12-03T07:38:17.787Z,33.40
2022-12-03T07:40:44.183Z,33.23
2022-12-03T07:43:10.653Z,33.28
2022-12-03T07:45:36.996Z,33.42
2022-12-03T07:48:03.489Z,33.34
2022-12-03T07:50:29.824Z,33.36
2022-12-03T07:52:57.515Z,33.44
2022-12-03T07:55:23.825Z,33.33
2022-12-03T07:57:50.245Z,33.23
2022-12-03T08:00:17.090Z,33.28
2022-12-03T08:02:43.436Z,33.34
2022-12-03T08:05:09.795Z,33.35
2022-12-03T08:07:36.148Z,33.24
2022-12-03T08:10:03.976Z,33.37
2022-12-03T08:12:30.405Z,33.28
2022-12-03T08:14:56.812Z,33.40
2022-12-03T08:17:23.523Z,33.28
2022-12-03T08:19:49.865Z,33.22
2022-12-03T08:22:16.300Z,33.25
2022-12-03T08:24:42.697Z,33.36
2022-12-03T08:27:12.141Z,33.38
2022-12-03T08:29:39.902Z,33.22
2022-12-03T08:32:06.433Z,33.35
2022-12-03T08:34:38.954Z,33.39
2022-12-03T08:37:08.723Z,33.28
2022-12-03T08:39:35.877Z,33.28
2022-12-03T08:42:13.569Z,33.40
2022-12-03T08:44:41.583Z,33.24
2022-12-03T08:47:12.086Z,33.23
2022-12-03T08:49:38.841Z,33.19
2022-12-03T08:52:11.017Z,33.20
2022-12-03T08:54:37.333Z,33.19
2022-12-03T08:57:06.667Z,33.23
2022-12-03T08:59:32.948Z,33.25
2022-12-03T09:02:00.710Z,33.26
2022-12-03T09:04:29.227Z,33.32
2022-12-03T09:06:56.138Z,33.34
2022-12-03T09:09:22.804Z,33.30
2022-12-03T09:11:49.739Z,33.33
2022-12-03T09:14:18.783Z,33.33
2022-12-03T09:16:45.702Z,33.18
2022-12-03T09:19:13.407Z,33.19
2022-12-03T09:21:39.698Z,33.09
2022-12-03T09:24:06.160Z,33.27
2022-12-03T09:26:32.461Z,33.16
2022-12-03T09:28:58.739Z,33.26
2022-12-03T09:31:25.126Z,33.33
2022-12-03T09:33:51.635Z,33.30
2022-12-03T09:36:19.212Z,33.49
2022-12-03T09:38:47.955Z,33.38
2022-12-03T09:41:14.636Z,33.18
2022-12-03T09:44:03.171Z,33.35
2022-12-03T09:46:27.363Z,33.26
2022-12-03T09:48:53.853Z,33.24
2022-12-03T09:51:21.522Z,33.33
2022-12-03T09:53:48.001Z,33.22
2022-12-03T09:56:18.018Z,33.20
2022-12-03T09:58:44.294Z,33.20
2022-12-03T10:01:12.964Z,33.13
2022-12-03T10:03:43.046Z,33.18
2022-12-03T10:06:10.236Z,33.62
2022-12-03T10:08:37.825Z,33.32
2022-12-03T10:11:04.233Z,33.31
2022-12-03T10:13:31.345Z,33.22
2022-12-03T10:15:59.963Z,33.24
2022-12-03T10:18:30.557Z,33.25
2022-12-03T10:20:57.598Z,33.24
2022-12-03T10:23:25.062Z,33.26
2022-12-03T10:25:54.188Z,33.13
2022-12-03T10:28:27.651Z,33.28
2022-12-03T10:30:54.722Z,33.25
2022-12-03T10:33:21.076Z,33.12
2022-12-03T10:35:47.405Z,33.26
2022-12-03T10:38:19.270Z,33.29
2022-12-03T10:40:45.874Z,33.09
2022-12-03T10:43:14.807Z,33.22
2022-12-03T10:45:41.357Z,33.34
2022-12-03T10:48:11.794Z,33.11
2022-12-03T10:50:45.796Z,33.18
2022-12-03T10:53:12.301Z,33.30
2022-12-03T10:55:41.810Z,33.10
2022-12-03T10:58:13.816Z,33.21
2022-12-03T11:00:41.428Z,33.28
2022-12-03T11:03:16.789Z,33.10
2022-12-03T11:05:43.079Z,33.15
2022-12-03T11:08:14.710Z,33.00
2022-12-03T11:10:41.513Z,33.29
2022-12-03T11:13:17.672Z,33.21
2022-12-03T11:15:45.327Z,33.10
2022-12-03T11:18:11.755Z,33.13
2022-12-03T11:20:47.981Z,33.12
2022-12-03T11:23:14.345Z,33.01
2022-12-03T11:25:48.200Z,33.23
2022-12-03T11:28:24.449Z,33.21
2022-12-03T11:30:58.468Z,33.17
2022-12-03T11:33:25.482Z,33.08
2022-12-03T11:36:06.655Z,33.22
2022-12-03T11:38:47.346Z,33.21
2022-12-03T11:41:18.672Z,33.17
2022-12-03T11:43:54.827Z,33.16
2022-12-03T11:46:24.388Z,33.25
2022-12-03T11:48:53.282Z,33.17
2022-12-03T11:51:21.240Z,33.25
2022-12-03T11:53:48.542Z,33.17
2022-12-03T11:56:16.812Z,33.16
2022-12-03T11:58:43.095Z,33.27
2022-12-03T12:01:09.551Z,33.25
2022-12-03T12:03:43.169Z,33.42
2022-12-03T12:06:10.343Z,33.12
2022-12-03T12:08:38.071Z,33.32
2022-12-03T12:11:15.606Z,33.34
2022-12-03T12:13:50.795Z,33.30
2022-12-03T12:16:27.031Z,33.13
2022-12-03T12:18:55.546Z,33.13
2022-12-03T12:21:32.570Z,33.27
2022-12-03T12:24:08.352Z,33.26
2022-12-03T12:26:34.527Z,33.19
2022-12-03T12:29:00.660Z,32.93
2022-12-03T12:31:27.141Z,33.24
2022-12-03T12:33:54.868Z,33.10
2022-12-03T12:36:21.163Z,33.25
2022-12-03T12:38:47.454Z,33.33
2022-12-03T12:41:13.780Z,33.34
2022-12-03T12:43:40.455Z,33.35
2022-12-03T12:46:38.622Z,33.28
2022-12-03T12:48:59.693Z,33.32
2022-12-03T12:51:26.331Z,33.41
2022-12-03T12:53:52.635Z,33.27
2022-12-03T12:56:22.540Z,33.19
2022-12-03T12:58:48.856Z,33.24
2022-12-03T13:01:19.814Z,33.16
2022-12-03T13:03:49.357Z,33.19
2022-12-03T13:06:17.512Z,33.17
2022-12-03T13:08:45.445Z,33.10
2022-12-03T13:11:15.829Z,33.25
2022-12-03T13:13:44.255Z,33.23
2022-12-03T13:16:12.396Z,33.21
2022-12-03T13:18:40.079Z,33.08
2022-12-03T13:21:11.185Z,33.16
2022-12-03T13:23:39.428Z,33.31
2022-12-03T13:26:30.501Z,33.21
2022-12-03T13:29:02.821Z,33.24
2022-12-03T13:31:31.450Z,33.26
2022-12-03T13:33:59.530Z,33.22
2022-12-03T13:36:34.645Z,33.15
2022-12-03T13:39:02.193Z,33.16
2022-12-03T13:41:28.450Z,33.20
2022-12-03T13:43:54.751Z,33.25
2022-12-03T13:46:21.229Z,33.48
2022-12-03T13:48:47.506Z,33.33
2022-12-03T13:51:19.550Z,33.33
2022-12-03T13:53:45.896Z,33.26
2022-12-03T13:56:20.276Z,33.17
2022-12-03T13:58:46.616Z,33.25
2022-12-03T14:01:12.999Z,33.12
2022-12-03T14:03:39.357Z,33.14
2022-12-03T14:06:06.433Z,33.13
2022-12-03T14:08:32.759Z,33.25
2022-12-03T14:11:00.892Z,33.32
2022-12-03T14:13:28.847Z,33.36
2022-12-03T14:15:55.406Z,33.29
2022-12-03T14:18:22.007Z,33.33
2022-12-03T14:20:48.377Z,33.34
2022-12-03T14:23:14.884Z,33.23
2022-12-03T14:25:41.239Z,33.20
2022-12-03T14:28:07.572Z,33.34
2022-12-03T14:30:35.189Z,33.32
2022-12-03T14:33:01.473Z,33.29
2022-12-03T14:35:28.060Z,33.12
2022-12-03T14:37:54.467Z,33.32
2022-12-03T14:40:21.891Z,33.20
2022-12-03T14:42:48.624Z,33.43
2022-12-03T14:45:15.266Z,33.40
2022-12-03T14:47:42.918Z,33.27
2022-12-03T14:50:09.570Z,33.21
2022-12-03T14:52:35.847Z,33.21
2022-12-03T14:55:02.168Z,33.37
2022-12-03T14:57:28.451Z,33.49
2022-12-03T14:59:54.939Z,33.34
2022-12-03T15:02:21.459Z,33.35
2022-12-03T15:04:49.113Z,33.37
2022-12-03T15:07:15.411Z,33.21
2022-12-03T15:09:41.839Z,33.17
2022-12-03T15:12:08.174Z,33.18
2022-12-03T15:14:34.515Z,33.31
2022-12-03T15:17:00.881Z,33.27
2022-12-03T15:19:27.213Z,33.35
2022-12-03T15:21:54.933Z,33.28
2022-12-03T15:24:21.258Z,33.33
2022-12-03T15:26:47.551Z,33.29
2022-12-03T15:29:13.858Z,33.30
2022-12-03T15:31:40.184Z,33.27
2022-12-03T15:34:06.542Z,33.41
2022-12-03T15:36:32.802Z,33.33
2022-12-03T15:39:00.423Z,33.44
2022-12-03T15:41:26.853Z,33.21
2022-12-03T15:43:53.129Z,33.40
2022-12-03T15:46:19.521Z,33.35
2022-12-03T15:48:45.885Z,33.46
2022-12-03T15:51:12.228Z,33.41
2022-12-03T15:53:39.028Z,33.45
2022-12-03T15:56:06.939Z,33.29
2022-12-03T15:58:33.268Z,33.30
2022-12-03T16:00:59.600Z,33.43
2022-12-03T16:03:26.090Z,33.35
2022-12-03T16:05:52.419Z,33.34
2022-12-03T16:08:18.881Z,33.28
2022-12-03T16:10:45.183Z,33.38
2022-12-03T16:13:12.847Z,33.52
2022-12-03T16:15:39.187Z,33.52
2022-12-03T16:18:05.539Z,33.45
2022-12-03T16:20:31.909Z,33.39
2022-12-03T16:22:58.229Z,33.35
2022-12-03T16:25:24.769Z,33.44
2022-12-03T16:27:51.074Z,33.41
2022-12-03T16:30:18.676Z,33.46
2022-12-03T16:32:44.970Z,33.39
2022-12-03T16:35:11.284Z,33.41
2022-12-03T16:37:37.622Z,33.44
2022-12-03T16:40:04.173Z,33.52
2022-12-03T16:42:30.448Z,33.43
2022-12-03T16:44:56.820Z,33.32
2022-12-03T16:47:28.044Z,33.61
2022-12-03T16:49:57.025Z,33.54
2022-12-03T16:52:23.368Z,33.50
2022-12-03T16:54:49.708Z,33.50
2022-12-03T16:57:16.165Z,33.43
2022-12-03T16:59:42.483Z,33.40
2022-12-03T17:02:10.100Z,33.55
2022-12-03T17:04:37.693Z,33.39
2022-12-03T17:07:03.980Z,33.38
2022-12-03T17:09:30.261Z,33.45
2022-12-03T17:11:56.533Z,33.45
2022-12-03T17:14:22.906Z,33.57
2022-12-03T17:16:49.385Z,33.52
2022-12-03T17:19:16.141Z,33.53
2022-12-03T17:21:44.288Z,33.43
2022-12-03T17:24:10.594Z,33.26
2022-12-03T17:26:36.925Z,33.42
2022-12-03T17:29:03.365Z,33.38
2022-12-03T17:31:29.785Z,33.45
2022-12-03T17:33:56.174Z,33.50
2022-12-03T17:36:22.618Z,33.36
2022-12-03T17:38:50.260Z,33.36
2022-12-03T17:41:16.670Z,33.34
2022-12-03T17:43:42.976Z,33.53
2022-12-03T17:46:09.367Z,33.51
2022-12-03T17:48:35.863Z,33.41
2022-12-03T17:51:02.169Z,33.49
2022-12-03T17:53:28.605Z,33.48
2022-12-03T17:55:56.223Z,33.39
2022-12-03T17:58:22.567Z,33.33
2022-12-03T18:00:48.970Z,33.33
2022-12-03T18:03:15.276Z,33.42
2022-12-03T18:05:41.576Z,33.47
2022-12-03T18:08:07.944Z,33.42
2022-12-03T18:10:34.340Z,33.54
2022-12-03T18:13:02.501Z,33.43
2022-12-03T18:15:29.012Z,33.50
2022-12-03T18:17:55.338Z,33.54
2022-12-03T18:20:21.741Z,33.40
2022-12-03T18:22:48.069Z,33.44
2022-12-03T18:25:14.501Z,33.50
2022-12-03T18:27:40.772Z,33.42
2022-12-03T18:30:08.910Z,33.46
2022-12-03T18:32:35.343Z,33.50
2022-12-03T18:35:01.624Z,33.42
2022-12-03T18:37:28.719Z,33.41
2022-12-03T18:39:56.296Z,33.40
2022-12-03T18:42:23.309Z,33.41
2022-12-03T18:44:50.634Z,33.42
2022-12-03T18:47:19.526Z,33.44
2022-12-03T18:49:45.957Z,33.55
2022-12-03T18:52:12.806Z,33.55
2022-12-03T18:54:39.480Z,33.53
2022-12-03T18:57:05.831Z,33.40
2022-12-03T18:59:32.142Z,33.40
2022-12-03T19:01:58.535Z,33.49
2022-12-03T19:04:26.475Z,33.39
2022-12-03T19:06:53.017Z,33.36
2022-12-03T19:09:19.325Z,33.43
2022-12-03T19:11:45.634Z,33.49
2022-12-03T19:14:11.926Z,33.32
2022-12-03T19:16:38.754Z,33.35
2022-12-03T19:19:05.548Z,33.51
2022-12-03T19:21:33.994Z,33.53
2022-12-03T19:24:23.262Z,33.63
2022-12-03T19:26:47.039Z,33.47
2022-12-03T19:29:13.358Z,33.44
2022-12-03T19:31:39.720Z,33.48
2022-12-03T19:34:06.127Z,33.45
2022-12-03T19:36:33.872Z,33.41
2022-12-03T19:39:00.648Z,33.56
2022-12-03T19:41:28.419Z,33.40
2022-12-03T19:43:55.436Z,33.42
2022-12-03T19:46:22.896Z,33.34
2022-12-03T19:48:49.356Z,33.43
2022-12-03T19:51:33.692Z,33.35
2022-12-03T19:54:02.733Z,33.65
2022-12-03T19:56:29.043Z,33.48
2022-12-03T19:58:55.770Z,33.52
2022-12-03T20:01:23.347Z,33.41
2022-12-03T20:03:50.958Z,33.50
2022-12-03T20:06:18.628Z,33.49
2022-12-03T20:08:45.525Z,33.55
2022-12-03T20:11:14.267Z,33.49
2022-12-03T20:13:41.021Z,33.55
2022-12-03T20:16:08.358Z,33.51
2022-12-03T20:18:34.981Z,33.46
2022-12-03T20:21:01.660Z,33.37
2022-12-03T20:23:28.090Z,33.66
2022-12-03T20:25:54.496Z,33.40
2022-12-03T20:28:22.140Z,33.56
2022-12-03T20:30:56.827Z,33.56
2022-12-03T20:33:23.139Z,33.44
2022-12-03T20:35:51.119Z,33.53
2022-12-03T20:38:17.396Z,33.49
2022-12-03T20:40:43.868Z,33.53
2022-12-03T20:43:10.170Z,33.63
2022-12-03T20:45:37.854Z,33.44
2022-12-03T20:48:04.408Z,33.51
2022-12-03T20:50:30.743Z,33.52
2022-12-03T20:53:22.669Z,33.59
2022-12-03T20:55:43.279Z,33.68
2022-12-03T20:58:09.684Z,33.67
2022-12-03T21:00:36.049Z,33.58
2022-12-03T21:03:03.736Z,33.56
2022-12-03T21:05:30.087Z,33.69
2022-12-03T21:07:56.493Z,33.39
2022-12-03T21:10:22.831Z,33.64
2022-12-03T21:12:49.298Z,33.50
2022-12-03T21:15:15.797Z,33.51
2022-12-03T21:17:42.098Z,33.53
2022-12-03T21:20:09.932Z,33.52
2022-12-03T21:22:36.230Z,33.59
2022-12-03T21:25:02.554Z,33.50
2022-12-03T21:27:28.850Z,33.72
2022-12-03T21:29:55.588Z,33.62
2022-12-03T21:32:22.184Z,33.68
2022-12-03T21:34:48.495Z,33.60
2022-12-03T21:37:16.066Z,33.64
2022-12-03T21:39:42.412Z,33.54
2022-12-03T21:42:34.947Z,33.62
2022-12-03T21:44:55.109Z,33.64
2022-12-03T21:47:21.548Z,33.59
2022-12-03T21:49:47.863Z,33.60
2022-12-03T21:52:14.207Z,33.59
2022-12-03T21:54:41.786Z,33.63
2022-12-03T21:57:08.089Z,33.59
2022-12-03T21:59:34.410Z,33.53
2022-12-03T22:02:00.899Z,33.71
2022-12-03T22:04:27.204Z,33.62
2022-12-03T22:06:54.291Z,33.56
2022-12-03T22:09:26.287Z,33.76
2022-12-03T22:11:54.371Z,33.62
2022-12-03T22:14:20.661Z,33.65
2022-12-03T22:16:47.131Z,33.60
2022-12-03T22:19:13.410Z,33.61
2022-12-03T22:21:39.712Z,33.53
2022-12-03T22:24:06.187Z,33.67
2022-12-03T22:26:35.133Z,33.60
2022-12-03T22:29:02.932Z,33.60
2022-12-03T22:31:29.321Z,33.77
2022-12-03T22:33:55.782Z,33.81
2022-12-03T22:36:22.161Z,33.75
2022-12-03T22:38:48.552Z,33.63
2022-12-03T22:41:15.158Z,33.61
2022-12-03T22:43:41.473Z,33.64
2022-12-03T22:46:09.312Z,33.66
2022-12-03T22:48:36.254Z,33.59
2022-12-03T22:51:03.038Z,33.65
2022-12-03T22:53:29.349Z,33.47
2022-12-03T22:55:56.347Z,33.53
2022-12-03T22:58:22.870Z,33.68
2022-12-03T23:00:49.227Z,33.45
2022-12-03T23:03:17.293Z,33.66
2022-12-03T23:05:43.710Z,33.87
2022-12-03T23:08:11.336Z,33.76
2022-12-03T23:10:38.880Z,33.63
2022-12-03T23:13:05.736Z,33.70
2022-12-03T23:15:32.201Z,33.71
2022-12-03T23:17:58.587Z,33.70
2022-12-03T23:20:26.600Z,33.76
2022-12-03T23:22:53.239Z,33.67
2022-12-03T23:25:20.067Z,33.69
2022-12-03T23:27:46.819Z,33.68
2022-12-03T23:30:13.985Z,33.79
2022-12-03T23:32:40.702Z,33.59
2022-12-03T23:35:07.416Z,33.56
2022-12-03T23:37:35.171Z,33.62
2022-12-03T23:40:01.498Z,33.70
2022-12-03T23:42:27.787Z,33.79
2022-12-03T23:44:54.180Z,33.81
2022-12-03T23:47:20.526Z,33.69
2022-12-03T23:49:46.848Z,33.68
2022-12-03T23:52:13.264Z,33.69
2022-12-03T23:54:40.849Z,33.70
2022-12-03T23:57:07.108Z,33.80
2022-12-03T23:59:33.438Z,33.69
